Create Custom Reports and Graphics: Custom Report

Kelseyville-South

Current Conditions

3/1/21 4:45 AM (-08:00)
Updated Every 15 Minutes
Temp 29.2 °F   0.2
RH 91 %   6
Dew Pt 26.8 °F   1.8
Wind Spd 1.7 mph   1.2
Wind Dir S | 172 °
Wind Gust 2.7 mph   1.0
Solar Rad 0 W/m2   0
Leaf Wet 0.0 mins
BatVolt 12.7 V

Today & Yesterday

Kelseyville-South

3/1/21 4:45 AM (-08:00)
Updated Every 15 Minutes
Daily Max Temp 35.3 °F   0.3
Time of Max Temp 0008
Daily Min Temp 28.7 °F   0.1
Time of Min Temp 0317
Daily Max Wind 4.8 mph   0.3
Time of Max Wind 0112
Max Wind Dir ESE | 119 °
Daily Rain 0.00 In
Daily ETo 0.000 in   0.000
Daily Leaf Wet Hrs 0.0 hrs
Yesterday's Max Temp 66.2 °F
Yesterday’s Min Temp 27.0 °F
Yesterday's Max Wind 14.5 mph
Yesterday's Rainfall 0.00 In
Yesterday's ETo 0.12 In
Leaf Wet Hrs Yest 2.3 Hours

Last 48 Hours

Kelseyville-South

Hourly Data | America/Los_Angeles
as of 3/1/21 4:50 AM PST
Date & Time Temp (°F) WindChill (°F) RH (%) Dew Pt (°F) Wet Bulb (°F) Wind Dir (°) Wind Spd (mph) Wind Gust (mph) Wind Gst Dir (°) Solar Rad (W/m2) Leaf Wet (mins) Latest Rain (In) Daily Rain (In) Daily Min Temp (°F) Daily Max Temp (°F) Daily ETo (in) Daily Leaf Wet Hrs (hrs)
3/1/21 - 0400 29.3 - 91 27.1 28.4 S | 174 1.3 3.8 SSE | 152 0 0.0 0.00 0.00 28.7 35.3 0.000 0.0
3/1/21 - 0300 31.1 - 88 28.0 29.9 S | 173 0.6 2.7 S | 176 0 0.0 0.00 0.00 30.2 35.3 0.000 0.0
3/1/21 - 0200 33.3 - 84 29.1 31.6 SSE | 155 1.1 4.8 ESE | 119 0 0.0 0.00 0.00 32.6 35.3 0.000 0.0
3/1/21 - 0100 34.5 - 82 29.4 32.5 S | 172 1.7 4.4 SE | 131 0 0.0 0.00 0.00 33.4 35.3 0.000 0.0
3/1/21 - 0000 35.0 - 81 29.8 33.0 S | 172 1.3 4.1 SE | 124 0 0.0 0.00 0.00 27.0 66.2 0.119 2.3
2/28/21 - 2300 36.5 - 78 30.3 34.0 S | 170 2.0 3.8 SSE | 167 0 0.0 0.00 0.00 27.0 66.2 0.119 2.3
2/28/21 - 2200 41.4 - 62 29.2 36.6 SSW | 208 1.1 5.1 WNW | 302 0 0.0 0.00 0.00 27.0 66.2 0.119 2.3
2/28/21 - 2100 44.4 - 54 28.8 38.0 S | 173 2.9 6.8 SSW | 208 0 0.0 0.00 0.00 27.0 66.2 0.119 2.3
2/28/21 - 2000 51.5 - 36 24.9 40.5 SSW | 196 3.3 7.1 SSE | 147 0 0.0 0.00 0.00 27.0 66.2 0.118 2.3
2/28/21 - 1900 57.0 - 28 24.4 43.0 SE | 146 5.2 9.1 SE | 137 1 0.0 0.00 0.00 27.0 66.2 0.118 2.3
2/28/21 - 1800 62.3 - 24 25.0 45.4 ESE | 121 4.8 9.1 SE | 131 82 0.0 0.00 0.00 27.0 66.2 0.116 2.3
2/28/21 - 1700 64.6 - 22 24.9 46.3 E | 96 5.8 11.8 E | 84 282 0.0 0.00 0.00 27.0 66.2 0.113 2.3
2/28/21 - 1600 65.5 - 22 25.6 46.9 NE | 43 4.2 12.5 E | 86 472 0.0 0.00 0.00 27.0 66.2 0.104 2.3
2/28/21 - 1500 64.4 - 24 26.3 46.7 ENE | 72 5.1 14.5 ESE | 119 626 0.0 0.00 0.00 27.0 65.2 0.092 2.3
2/28/21 - 1400 62.6 - 31 31.3 47.5 ENE | 70 4.2 13.5 NE | 38 724 0.0 0.00 0.00 27.0 64.1 0.076 2.3
2/28/21 - 1300 61.4 - 36 34.2 48.0 NNE | 22 3.8 11.1 NNE | 28 754 0.0 0.00 0.00 27.0 62.3 0.058 2.3
2/28/21 - 1200 57.4 - 44 35.4 46.8 SE | 139 2.9 8.8 ESE | 120 733 0.0 0.00 0.00 27.0 61.1 0.041 2.3
2/28/21 - 1100 52.0 - 59 38.2 45.5 NE | 35 3.1 9.1 NE | 53 639 0.0 0.00 0.00 27.0 54.2 0.025 2.3
2/28/21 - 1000 47.6 - 70 38.3 43.5 N | 357 2.5 6.8 NNE | 23 486 0.0 0.00 0.00 27.0 49.3 0.012 2.3
2/28/21 - 0900 41.1 - 84 36.4 39.2 S | 178 1.7 5.8 SSE | 155 304 13.0 0.00 0.00 27.0 46.4 0.004 2.3
2/28/21 - 0800 31.0 - 96 30.0 30.5 SSE | 154 1.1 3.4 ESE | 118 109 23.2 0.00 0.00 27.0 35.2 0.000 2.1
2/28/21 - 0700 27.8 - 97 27.1 27.4 S | 181 1.2 3.4 SSE | 165 2 0.0 0.00 0.00 27.0 35.0 0.000 1.7
2/28/21 - 0600 28.9 - 97 28.1 28.5 S | 184 1.2 3.1 SSE | 168 0 0.0 0.00 0.00 27.9 35.0 0.000 1.7
2/28/21 - 0500 29.6 - 97 28.8 29.2 SE | 145 1.6 3.8 SSE | 164 0 17.8 0.00 0.00 28.8 35.0 0.000 1.7
2/28/21 - 0400 29.6 - 97 28.8 29.2 SSE | 151 1.6 4.1 ESE | 117 0 60.0 0.00 0.00 28.8 35.0 0.000 1.4
2/28/21 - 0300 30.1 - 96 29.2 29.6 S | 171 2.1 4.4 SE | 138 0 26.0 0.00 0.00 29.0 35.0 0.000 0.4
2/28/21 - 0200 31.7 - 94 30.2 31.0 S | 183 0.8 3.1 SE | 138 0 0.0 0.00 0.00 30.0 35.0 0.000 0.0
2/28/21 - 0100 33.6 - 92 31.5 32.7 S | 184 0.9 3.1 SE | 144 0 0.0 0.00 0.00 32.6 35.0 0.000 0.0
2/28/21 - 0000 34.1 - 92 32.0 33.3 SSE | 152 2.2 3.8 ESE | 113 0 0.0 0.00 0.00 26.4 58.0 0.101 0.0
2/27/21 - 2300 35.8 - 88 32.6 34.5 S | 175 1.6 3.8 S | 185 0 0.0 0.00 0.00 26.4 58.0 0.101 0.0
2/27/21 - 2200 39.0 - 82 34.1 37.0 SSE | 154 1.9 5.1 SE | 133 0 0.0 0.00 0.00 26.4 58.0 0.101 0.0
2/27/21 - 2100 40.9 - 79 34.9 38.4 SSE | 152 3.3 6.4 ESE | 123 0 0.0 0.00 0.00 26.4 58.0 0.101 0.0
2/27/21 - 2000 43.7 - 72 35.4 40.2 S | 185 3.4 4.8 SSW | 206 0 0.0 0.00 0.00 26.4 58.0 0.101 0.0
2/27/21 - 1900 47.5 - 64 36.0 42.4 SW | 225 2.7 6.8 WSW | 248 1 0.0 0.00 0.00 26.4 58.0 0.101 0.0
2/27/21 - 1800 53.0 - 53 36.1 45.1 WNW | 292 5.5 10.5 WNW | 286 71 0.0 0.00 0.00 26.4 58.0 0.101 0.0
2/27/21 - 1700 56.6 - 44 34.8 46.2 NW | 308 6.8 11.5 WNW | 291 266 0.0 0.00 0.00 26.4 58.0 0.099 0.0
2/27/21 - 1600 57.4 - 38 32.1 45.6 WNW | 302 5.1 14.2 NW | 318 458 0.0 0.00 0.00 26.4 58.0 0.092 0.0
2/27/21 - 1500 56.4 - 36 30.0 44.4 NW | 326 3.4 9.8 NW | 307 616 0.0 0.00 0.00 26.4 57.6 0.081 0.0
2/27/21 - 1400 54.6 - 37 28.7 43.2 N | 359 3.6 9.8 NNE | 29 716 0.0 0.00 0.00 26.4 55.7 0.068 0.0
2/27/21 - 1300 52.2 - 38 27.4 41.6 NNW | 346 3.4 8.4 N | 9 751 0.0 0.00 0.00 26.4 53.7 0.053 0.0
2/27/21 - 1200 50.6 - 44 29.4 41.5 N | 355 3.9 8.4 NW | 315 728 0.0 0.00 0.00 26.4 51.2 0.038 0.0
2/27/21 - 1100 47.9 - 50 29.9 40.3 NNE | 21 3.1 8.4 NE | 38 634 0.0 0.00 0.00 26.4 49.6 0.024 0.0
2/27/21 - 1000 45.0 - 55 29.9 38.8 SE | 136 1.7 8.1 ENE | 68 485 0.0 0.00 0.00 26.4 46.3 0.012 0.0
2/27/21 - 0900 39.7 37.6 70 30.6 36.0 ESE | 118 3.4 6.4 ESE | 114 296 0.0 0.00 0.00 26.4 43.2 0.004 0.0
2/27/21 - 0800 30.7 - 89 27.9 29.6 SSE | 148 2.1 4.1 SE | 125 105 0.0 0.00 0.00 26.4 36.9 0.000 0.0
2/27/21 - 0700 27.0 - 94 25.4 26.4 SSE | 168 2.5 4.8 ESE | 114 3 0.0 0.00 0.00 26.4 36.9 0.000 0.0
2/27/21 - 0600 27.6 - 94 26.0 27.0 SSE | 162 2.6 4.8 SW | 217 0 0.0 0.00 0.00 27.1 36.9 0.000 0.0
2/27/21 - 0500 27.9 24.4 94 26.5 27.3 SE | 138 3.2 5.1 SE | 144 0 0.0 0.00 0.00 27.7 36.9 0.000 0.0
2/27/21 - 0400 28.6 - 94 27.0 27.9 SSE | 156 2.7 4.1 SE | 128 0 0.0 0.00 0.00 28.2 36.9 0.000 0.0
Max 65.5 37.6 97 38.3 48.0 - 6.8 14.5 - 754 60.0 0.00 0.00 33.4 66.2 0.119 2.3
Avg 43.1 31.0 67 30.1 37.3 - 2.8 6.8 - 211 2.9 0.00 - - - - -
Min 27.0 24.4 22 24.4 26.4 - 0.6 2.7 - 0 0.0 0.00 0.00 26.4 35.0 0.000 0.0
Total - - - - - - - - - - - 0.00 - - - - -

Last 30 Days

Kelseyville-South

Daily Data | America/Los_Angeles
as of 3/1/21 4:50 AM PST
Date Daily Max Temp (°F) Time of Max Temp Daily Min Temp (°F) Time of Min Temp Daily Rain (In) Monthly Rain (In) Seasonal Rainfall (In) Wind Spd (mph) Daily Max Wind (mph) Time of Max Wind Max Wind Dir (°) Daily ETo (in) 7 Day ETo (in) Daily Solar Rad (Cal/cm2) Dew Pt (°F) Max RH (%) Min RH (%) Daily Leaf Wet Hrs (hrs) Hrs 70-85F (hrs) Hrs > 95F (hrs) Powdery Mildew Stress (pts) GDDs (DL) GDDs (Mx/Mn) Hrs <= 32F (hrs) Hrs <= 28F (hrs) Chilling <=45F (hrs) Chill Hrs 32-45F (hrs) Utah Chilling (Units) Chilling <=45F Seas (hrs) Chill Hrs 32-45 Seas (hrs) Utah Chilling Seas (Units) Chill Portions Degree Hrs (hrs) Max 1 Min Rain (In) Max 1 Min Rain Time Max 15 Min Rain (In) Max 15 Min Precip Time Max 60 Min Rain (In) Max 60 Min Rain Time Bat Volt Min Day (V)
2/28/21 66.2 1512 27.0 0657 0.00 1.39 7.11 2.7 14.5 1408 ESE | 119 0.119 0.79 448 29.9 98 19 2.3 0.00 0.00 - 4.1 0.0 6.3 0.9 12.6 6.2 3.0 1,494 1,069 1,305 78 0.5 - - - - - - 12.6
2/27/21 58.0 1516 26.4 0636 0.00 1.39 7.11 3.1 14.2 1548 NW | 318 0.101 0.76 441 30.6 95 33 0.0 0.00 0.00 - 1.3 0.0 6.4 2.8 14.4 8.0 10.0 1,481 1,063 1,303 78 0.0 - - - - - - 12.6
2/26/21 59.9 1351 28.3 0620 0.00 1.39 7.11 5.4 24.9 1531 WNW | 292 0.115 0.74 440 32.7 97 32 1.2 0.00 0.00 - 1.9 0.0 4.7 0.0 12.4 7.7 9.0 1,467 1,055 1,293 77 0.0 - - - - - - 12.6
2/25/21 68.7 1601 26.6 0710 0.00 1.39 7.11 2.3 14.8 1742 WNW | 289 0.101 0.68 395 27.4 89 17 0.0 0.00 0.00 - 3.6 0.0 4.5 1.6 13.0 8.5 6.0 1,455 1,048 1,285 76 3.9 - - - - - - 12.6
2/24/21 65.6 1422 27.9 0713 0.00 1.39 7.11 3.2 19.2 1729 ENE | 63 0.126 0.65 444 23.3 96 7 0.0 0.00 0.00 - 3.6 0.0 3.8 0.1 12.2 8.4 6.5 1,442 1,039 1,280 76 0.0 - - - - - - 12.6
2/23/21 73.7 1608 31.4 0704 0.00 1.39 7.11 2.2 12.8 1706 W | 278 0.117 0.60 430 35.2 99 8 4.3 2.67 0.00 - 5.9 2.6 0.3 0.0 11.9 11.6 4.5 1,429 1,031 1,275 75 22.5 - - - - - - 12.7
2/22/21 71.2 1627 32.8 0713 0.00 1.39 7.11 2.0 8.1 1152 N | 9 0.110 0.57 428 37.8 97 21 0.0 2.93 0.00 - 6.0 2.0 0.0 0.0 10.3 10.3 5.5 1,418 1,019 1,271 75 22.3 - - - - - - 12.7
2/21/21 63.1 1636 29.4 0654 0.00 1.39 7.11 2.1 8.8 1547 NNE | 27 0.091 0.51 403 37.0 100 37 7.1 0.00 0.00 - 2.7 0.0 4.0 0.0 12.8 8.8 7.5 1,407 1,009 1,267 74 0.0 - - - - - - 12.7
2/20/21 55.3 1533 35.0 2358 0.06 1.39 7.11 5.4 22.5 0028 WNW | 283 0.086 0.44 392 38.0 98 44 6.9 0.00 0.00 - 0.8 0.0 0.0 0.0 12.6 12.6 17.5 1,394 1,000 1,260 73 0.0 0.01 0449 0.02 0159 0.11 0004 12.7
2/19/21 55.2 1329 41.1 2347 0.22 1.33 7.05 6.2 19.8 1330 W | 268 0.049 0.43 229 41.2 100 58 12.0 0.00 0.00 - 0.7 0.0 0.0 0.0 13.4 13.4 20.0 1,382 987 1,243 72 0.0 0.02 2339 0.06 2339 0.14 2346 12.8
2/18/21 58.1 1424 29.9 0333 0.06 1.11 6.83 2.8 13.2 1405 SW | 217 0.068 0.45 206 32.2 99 20 1.7 0.00 0.00 0 1.5 0.0 3.2 0.0 11.2 8.0 5.0 1,368 974 678 - 0.0 0.01 2348 0.02 2329 0.05 2359 12.6
2/17/21 58.8 1503 26.4 0650 0.00 1.05 6.77 0.9 8.4 1243 NE | 50 0.081 0.40 385 30.4 98 15 6.5 0.00 0.00 0 1.6 0.0 6.2 2.5 13.7 7.5 6.5 1,357 966 674 - 0.0 - - - - - - 12.6
2/16/21 56.0 1433 31.1 0624 0.00 1.05 6.77 1.3 15.2 1608 WNW | 291 0.084 0.41 388 36.4 97 46 6.4 0.00 0.00 0 1.0 0.0 0.8 0.0 13.5 12.7 6.0 1,344 958 669 - 0.0 - - - - - - 12.7
2/15/21 56.2 1343 42.8 2144 0.04 1.05 6.77 3.7 17.2 1401 W | 274 0.046 0.38 199 44.8 100 67 11.8 0.00 0.00 0 1.1 0.0 0.0 0.0 7.3 7.3 7.5 1,330 946 664 - 0.0 0.01 0600 0.01 0614 0.01 0659 12.7
2/14/21 47.0 1123 33.7 0255 0.22 1.01 6.73 0.6 6.8 1336 NE | 55 0.025 0.38 110 39.3 99 62 14.1 0.00 0.00 0 0.0 0.0 0.0 0.0 21.9 21.9 21.5 1,323 938 657 - 0.0 0.01 2301 0.02 1558 0.06 1520 12.7
2/13/21 54.7 1356 35.0 2351 0.09 0.79 6.51 4.9 20.9 1438 WNW | 287 0.081 0.44 358 40.4 95 44 3.8 0.00 0.00 0 0.9 0.0 0.0 0.0 5.0 5.0 7.5 1,301 916 636 - 0.0 0.01 0538 0.03 0503 0.07 0510 12.7
2/12/21 55.9 1214 37.1 0642 0.00 0.70 6.42 2.9 19.8 1408 WNW | 293 0.069 0.44 305 41.6 94 55 0.2 0.00 0.00 0 1.1 0.0 0.0 0.0 7.8 7.8 5.5 1,296 911 630 - 0.0 - - - - - - 12.6
2/11/21 51.6 1154 38.1 0343 0.27 0.70 6.42 2.0 17.2 2057 W | 279 0.019 0.44 72 42.9 97 79 11.1 0.00 0.00 0 0.1 0.0 0.0 0.0 10.2 10.2 19.0 1,288 904 626 - 0.0 0.01 2002 0.06 1528 0.16 1528 12.7
2/10/21 64.1 1459 33.5 0704 0.00 0.43 6.15 1.3 11.5 1344 W | 269 0.084 0.50 357 39.4 96 40 0.0 0.00 0.00 0 3.5 0.0 0.0 0.0 11.2 11.2 4.0 1,278 893 608 - 0.0 - - - - - - 12.6
2/9/21 61.3 1532 37.0 0731 0.00 0.43 6.15 1.3 12.5 1613 W | 274 0.055 0.45 218 38.6 94 38 0.1 0.00 0.00 0 2.9 0.0 0.0 0.0 6.2 6.2 3.0 1,267 882 604 - 0.0 - - - - - - 12.7
2/8/21 58.0 1517 28.6 0721 0.00 0.43 6.15 0.6 7.1 1719 WSW | 258 0.045 0.46 208 35.1 94 45 0.0 0.00 0.00 0 1.9 0.0 6.4 0.0 9.7 3.3 4.0 1,260 876 602 - 0.0 - - - - - - 12.6
2/7/21 68.7 1445 27.1 0724 0.00 0.43 6.15 0.9 12.1 1501 W | 270 0.088 0.46 359 33.3 97 18 1.7 0.00 0.00 0 4.0 0.0 4.6 0.5 13.2 8.5 5.5 1,251 873 600 - 6.1 - - - - - - 12.6
2/6/21 70.7 1656 28.2 0646 0.00 0.43 6.15 0.4 7.4 1436 ENE | 58 0.076 0.41 351 33.7 97 14 4.9 0.10 0.00 0 4.0 0.0 5.4 0.0 13.2 7.8 0.5 1,237 864 595 - 6.7 - - - - - - 12.6
2/5/21 69.5 1603 27.2 0649 0.00 0.43 6.15 0.5 6.8 1527 ENE | 61 0.078 0.39 350 33.8 97 25 1.6 0.00 0.00 0 3.9 0.0 6.5 1.0 13.4 6.9 5.5 1,224 856 596 - 6.0 - - - - - - 12.6
2/4/21 61.4 1648 27.1 0555 0.00 0.43 6.15 0.3 7.1 1420 ENE | 60 0.069 0.34 337 31.1 98 17 6.7 0.00 0.00 0 2.1 0.0 7.0 0.8 15.4 8.4 0.0 1,211 849 591 - 0.0 - - - - - - 12.6
2/3/21 51.9 1440 30.4 0242 0.04 0.43 6.15 2.2 22.9 1450 WNW | 284 0.037 0.30 190 37.7 98 65 16.8 0.00 0.00 0 0.0 0.0 2.5 0.0 17.2 14.7 16.0 1,195 841 586 - 0.0 0.01 1527 0.01 1541 0.02 1110 12.6
2/2/21 54.2 1312 34.8 2348 0.03 0.39 6.11 3.2 15.2 1306 W | 267 0.063 0.29 279 41.7 98 50 10.4 0.00 0.00 0 0.5 0.0 0.0 0.0 6.1 6.1 17.5 1,178 826 571 - 0.0 0.01 0403 0.01 0417 0.02 0214 12.6
2/1/21 53.8 1052 45.8 0135 0.36 0.36 6.08 2.7 15.5 1142 SSE | 168 0.044 0.25 179 42.7 96 46 8.1 0.00 0.00 0 0.6 0.0 0.0 0.0 0.0 0.0 13.5 1,172 820 554 - 0.0 0.01 2217 0.05 1618 0.14 1632 12.7
1/31/21 56.4 1529 42.6 0001 0.01 2.88 5.72 2.5 10.8 1428 ESE | 117 0.044 0.27 154 40.9 88 51 4.2 0.00 0.00 - 1.8 0.0 0.0 0.0 0.8 0.8 3.5 1,172 820 542 - 0.0 0.01 0807 0.01 0821 0.01 0906 12.7
1/30/21 56.9 1541 37.5 0001 0.00 2.87 5.71 1.9 13.2 1442 E | 91 0.054 0.24 218 36.8 96 34 3.2 0.00 0.00 - 0.7 0.0 0.0 0.0 15.1 15.1 6.5 1,171 819 538 - 0.0 - - - - - - 12.6
Max 73.7 - 45.8 - 0.36 2.88 - 6.2 24.9 - - 0.126 - 448 44.8 100 79 16.8 2.93 0.00 - 6.0 2.6 7.0 2.8 21.9 21.9 21.5 - - - 78 22.5 0.02 - 0.06 - 0.16 - 12.8
Avg - - - - - 1.04 - 2.4 - - - - - - 36.2 - - - 0.19 0.00 - 2.1 0.2 2.4 0.3 11.3 8.8 8.2 - - - 75 - - - - - - - -
Min 47.0 - 26.4 - 0.00 0.36 - 0.3 6.8 - - 0.019 - 72 23.3 88 7 0.0 0.00 0.00 - 0.0 0.0 0.0 0.0 0.0 0.0 0.0 - - - 72 0.0 0.01 - 0.01 - 0.01 - 12.6
Total - - - - - - - - - - - - - - - - - - 5.69 0.00 - 63.9 4.5 72.6 10.2 337.7 265.1 247.5 - - - - - - - - - - - -